Forestdale, Massachusetts
Current Conditions -  °F | °C
As of 3:15 AM on Monday 24 Nov 2014 (Local Time) from KFMH Reporting Station
Overcast Overcast  
Wind Chill: 54°   Ceiling: 3500
Heat Index: 54°   Visibility: 9mi
Dew Point: 54°   Wind: 14mph
Humidity: 100%   Direction: 150°SSE
Pressure: 30.04"   Gusts: 21mph
Location:  41.69°N, 70.51°W
Report Text: KFMH 240815Z AUTO 15012G18KT 9SM BKN035 OVC047 12/12 A3004 RMK AO2
Loading
Personal Weather Stations






























Interactive Weather Map New forecast layout! Learn more

10-Day Weather Forecast

Advertisements
Track Severe Weather on mobile